Time,TemperatureF,DewpointF,PressureIn,WindDirection,WindDirectionDegrees,WindSpeedMPH,WindSpeedGustMPH,Humidity,HourlyPrecipIn,Conditions,Clouds,dailyrainin,SolarRadiationWatts/m^2,SoftwareType,DateUTC
2013-01-25 00:05:00,18.4,4.5,30.60,NW,311,1.0,15.0,54,0.00,,,0.00,0,Wunderground v.1.15,2013-01-25 05:05:00,
2013-01-25 00:10:00,18.5,4.2,30.60,NW,311,1.0,15.0,53,0.00,,,0.00,0,Wunderground v.1.15,2013-01-25 05:10:00,
2013-01-25 00:15:00,18.6,5.1,30.60,NW,310,1.0,15.0,55,0.00,,,0.00,0,Wunderground v.1.15,2013-01-25 05:15:00,
2013-01-25 00:20:00,18.6,3.9,30.60,NW,318,1.0,15.0,52,0.00,,,0.00,0,Wunderground v.1.15,2013-01-25 05:20:00,
2013-01-25 00:25:00,18.8,4.1,30.59,NNW,346,1.0,15.0,52,0.00,,,0.00,0,Wunderground v.1.15,2013-01-25 05:25:00,
2013-01-25 00:30:00,18.8,4.9,30.59,NNW,331,1.0,1.0,54,0.00,,,0.00,0,Wunderground v.1.15,2013-01-25 05:30:00,
2013-01-25 00:35:00,18.9,3.7,30.59,NNW,331,1.0,15.0,51,0.00,,,0.00,0,Wunderground v.1.15,2013-01-25 05:35:00,
2013-01-25 00:40:00,19.0,3.8,30.59,NNW,336,1.0,15.0,51,0.00,,,0.00,0,Wunderground v.1.15,2013-01-25 05:40:00,
2013-01-25 00:45:00,19.1,3.5,30.59,NNW,336,1.0,15.0,50,0.00,,,0.00,0,Wunderground v.1.15,2013-01-25 05:45:00,
2013-01-25 00:55:00,19.0,5.5,30.59,NNW,336,0.0,15.0,55,0.00,,,0.00,0,Wunderground v.1.15,2013-01-25 05:55:00,
2013-01-25 01:05:00,18.6,5.9,30.59,NNW,336,0.0,15.0,57,0.00,,,0.00,0,Wunderground v.1.15,2013-01-25 06:05:00,
2013-01-25 01:10:00,18.5,6.5,30.58,NNW,336,0.0,15.0,59,0.00,,,0.00,0,Wunderground v.1.15,2013-01-25 06:10:00,
2013-01-25 01:15:00,18.3,6.7,30.57,NNW,336,0.0,15.0,60,0.00,,,0.00,0,Wunderground v.1.15,2013-01-25 06:15:00,
2013-01-25 01:25:00,17.6,7.1,30.58,NNW,336,0.0,15.0,63,0.00,,,0.00,0,Wunderground v.1.15,2013-01-25 06:25:00,
2013-01-25 01:30:00,17.3,7.2,30.58,NNW,336,0.0,15.0,64,0.00,,,0.00,0,Wunderground v.1.15,2013-01-25 06:30:00,
2013-01-25 01:35:00,17.2,7.4,30.58,NNW,336,0.0,15.0,65,0.00,,,0.00,0,Wunderground v.1.15,2013-01-25 06:35:00,
2013-01-25 01:40:00,17.2,7.1,30.58,NNW,336,0.0,15.0,64,0.00,,,0.00,0,Wunderground v.1.15,2013-01-25 06:40:00,
2013-01-25 01:45:00,17.2,7.1,30.57,NNW,336,0.0,15.0,64,0.00,,,0.00,0,Wunderground v.1.15,2013-01-25 06:45:00,
2013-01-25 01:50:00,17.1,7.0,30.57,NNW,336,0.0,15.0,64,0.00,,,0.00,0,Wunderground v.1.15,2013-01-25 06:50:00,
2013-01-25 02:00:00,16.8,6.7,30.57,NNW,336,0.0,15.0,64,0.00,,,0.00,0,Wunderground v.1.15,2013-01-25 07:00:00,
2013-01-25 02:05:00,16.7,7.0,30.58,NNW,336,0.0,15.0,65,0.00,,,0.00,0,Wunderground v.1.15,2013-01-25 07:05:00,
2013-01-25 02:10:00,16.7,7.0,30.57,NNW,336,0.0,15.0,65,0.00,,,0.00,0,Wunderground v.1.15,2013-01-25 07:10:00,
2013-01-25 02:15:00,16.9,5.8,30.57,NNW,346,0.0,15.0,61,0.00,,,0.00,0,Wunderground v.1.15,2013-01-25 07:15:00,
2013-01-25 02:20:00,17.4,5.9,30.58,NW,315,1.0,15.0,60,0.00,,,0.00,0,Wunderground v.1.15,2013-01-25 07:20:00,
2013-01-25 02:25:00,17.8,6.6,30.57,WNW,300,1.0,15.0,61,0.00,,,0.00,0,Wunderground v.1.15,2013-01-25 07:25:00,
2013-01-25 02:35:00,18.2,7.0,30.57,WNW,300,0.0,15.0,61,0.00,,,0.00,0,Wunderground v.1.15,2013-01-25 07:35:00,
2013-01-25 02:45:00,18.0,7.9,30.56,WNW,300,0.0,15.0,64,0.00,,,0.00,0,Wunderground v.1.15,2013-01-25 07:45:00,
2013-01-25 02:50:00,17.8,7.3,30.56,WNW,300,0.0,15.0,63,0.00,,,0.00,0,Wunderground v.1.15,2013-01-25 07:50:00,
2013-01-25 02:55:00,17.8,8.0,30.56,WNW,300,0.0,15.0,65,0.00,,,0.00,0,Wunderground v.1.15,2013-01-25 07:55:00,
2013-01-25 03:05:00,17.8,8.0,30.57,WNW,300,0.0,15.0,65,0.00,,,0.00,0,Wunderground v.1.15,2013-01-25 08:05:00,
2013-01-25 03:10:00,17.8,6.6,30.57,WNW,300,0.0,15.0,61,0.00,,,0.00,0,Wunderground v.1.15,2013-01-25 08:10:00,
2013-01-25 03:15:00,17.9,6.7,30.57,WNW,300,0.0,15.0,61,0.00,,,0.00,0,Wunderground v.1.15,2013-01-25 08:15:00,
2013-01-25 03:20:00,17.8,7.7,30.56,WNW,300,0.0,15.0,64,0.00,,,0.00,0,Wunderground v.1.15,2013-01-25 08:20:00,
2013-01-25 03:25:00,17.7,7.9,30.57,WNW,300,0.0,15.0,65,0.00,,,0.00,0,Wunderground v.1.15,2013-01-25 08:25:00,
2013-01-25 03:35:00,17.3,7.9,30.56,WNW,300,0.0,15.0,66,0.00,,,0.00,0,Wunderground v.1.15,2013-01-25 08:35:00,
2013-01-25 03:40:00,17.1,8.3,30.55,WNW,300,0.0,15.0,68,0.00,,,0.00,0,Wunderground v.1.15,2013-01-25 08:40:00,
2013-01-25 03:45:00,16.9,8.5,30.55,WNW,300,1.0,15.0,69,0.00,,,0.00,0,Wunderground v.1.15,2013-01-25 08:45:00,
2013-01-25 03:50:00,16.8,8.7,30.56,WNW,300,1.0,15.0,70,0.00,,,0.00,0,Wunderground v.1.15,2013-01-25 08:50:00,
2013-01-25 03:55:00,16.4,8.3,30.55,WNW,300,1.0,15.0,70,0.00,,,0.00,0,Wunderground v.1.15,2013-01-25 08:55:00,
2013-01-25 04:00:00,16.2,8.1,30.56,WNW,300,1.0,1.0,70,0.00,,,0.00,0,Wunderground v.1.15,2013-01-25 09:00:00,
2013-01-25 04:10:00,16.0,8.3,30.55,WNW,300,0.0,15.0,71,0.00,,,0.00,0,Wunderground v.1.15,2013-01-25 09:10:00,
2013-01-25 04:20:00,16.0,8.3,30.56,WNW,300,0.0,15.0,71,0.00,,,0.00,0,Wunderground v.1.15,2013-01-25 09:20:00,
2013-01-25 04:25:00,16.1,9.0,30.56,WNW,300,0.0,15.0,73,0.00,,,0.00,0,Wunderground v.1.15,2013-01-25 09:25:00,
2013-01-25 04:30:00,16.0,8.6,30.55,WNW,300,0.0,15.0,72,0.00,,,0.00,0,Wunderground v.1.15,2013-01-25 09:30:00,
2013-01-25 04:40:00,16.1,8.7,30.56,WNW,300,0.0,15.0,72,0.00,,,0.00,0,Wunderground v.1.15,2013-01-25 09:40:00,
2013-01-25 04:45:00,16.0,8.9,30.56,WNW,300,0.0,15.0,73,0.00,,,0.00,0,Wunderground v.1.15,2013-01-25 09:45:00,
2013-01-25 04:50:00,16.0,8.9,30.56,WNW,300,0.0,15.0,73,0.00,,,0.00,0,Wunderground v.1.15,2013-01-25 09:50:00,
2013-01-25 04:55:00,15.9,9.1,30.56,WNW,300,0.0,15.0,74,0.00,,,0.00,0,Wunderground v.1.15,2013-01-25 09:55:00,
2013-01-25 05:00:00,16.0,9.5,30.57,WNW,300,0.0,15.0,75,0.00,,,0.00,0,Wunderground v.1.15,2013-01-25 10:00:00,
2013-01-25 05:10:00,16.1,9.6,30.56,WNW,300,0.0,15.0,75,0.00,,,0.00,0,Wunderground v.1.15,2013-01-25 10:10:00,
2013-01-25 05:15:00,16.1,9.6,30.55,WNW,300,0.0,15.0,75,0.00,,,0.00,0,Wunderground v.1.15,2013-01-25 10:15:00,
2013-01-25 05:20:00,16.1,9.3,30.55,WNW,300,0.0,15.0,74,0.00,,,0.00,0,Wunderground v.1.15,2013-01-25 10:20:00,
2013-01-25 05:25:00,16.2,9.4,30.55,WNW,300,0.0,15.0,74,0.00,,,0.00,0,Wunderground v.1.15,2013-01-25 10:25:00,
2013-01-25 05:30:00,16.2,9.4,30.56,WNW,300,0.0,15.0,74,0.00,,,0.00,0,Wunderground v.1.15,2013-01-25 10:30:00,
2013-01-25 05:40:00,16.3,9.8,30.56,WNW,300,0.0,15.0,75,0.00,,,0.00,0,Wunderground v.1.15,2013-01-25 10:40:00,
2013-01-25 05:50:00,16.4,10.2,30.56,WNW,300,0.0,15.0,76,0.00,,,0.00,0,Wunderground v.1.15,2013-01-25 10:50:00,
2013-01-25 05:55:00,16.4,10.4,30.56,WNW,300,1.0,15.0,77,0.00,,,0.00,0,Wunderground v.1.15,2013-01-25 10:55:00,
2013-01-25 06:00:00,16.5,10.5,30.56,WNW,300,1.0,15.0,77,0.00,,,0.00,0,Wunderground v.1.15,2013-01-25 11:00:00,
2013-01-25 06:05:00,16.4,10.4,30.55,WNW,300,0.0,15.0,77,0.00,,,0.00,0,Wunderground v.1.15,2013-01-25 11:05:00,
2013-01-25 06:15:00,16.4,10.2,30.54,WNW,300,0.0,15.0,76,0.00,,,0.00,0,Wunderground v.1.15,2013-01-25 11:15:00,
2013-01-25 06:20:00,16.4,10.2,30.54,WNW,300,0.0,15.0,76,0.00,,,0.00,0,Wunderground v.1.15,2013-01-25 11:20:00,
2013-01-25 06:25:00,16.5,10.3,30.54,WNW,300,0.0,15.0,76,0.00,,,0.00,0,Wunderground v.1.15,2013-01-25 11:25:00,
2013-01-25 06:30:00,16.6,10.3,30.55,WNW,300,0.0,15.0,76,0.00,,,0.00,0,Wunderground v.1.15,2013-01-25 11:30:00,
2013-01-25 06:35:00,16.5,10.5,30.55,WNW,300,0.0,15.0,77,0.00,,,0.00,0,Wunderground v.1.15,2013-01-25 11:35:00,
2013-01-25 06:45:00,16.3,10.1,30.55,WNW,300,0.0,15.0,76,0.00,,,0.00,0,Wunderground v.1.15,2013-01-25 11:45:00,
2013-01-25 06:50:00,16.3,9.8,30.55,WNW,300,0.0,15.0,75,0.00,,,0.00,0,Wunderground v.1.15,2013-01-25 11:50:00,
2013-01-25 07:00:00,16.4,9.3,30.54,WNW,289,0.0,15.0,73,0.00,,,0.00,0,Wunderground v.1.15,2013-01-25 12:00:00,
2013-01-25 07:05:00,16.4,8.9,30.53,WNW,289,0.0,15.0,72,0.00,,,0.00,0,Wunderground v.1.15,2013-01-25 12:05:00,
2013-01-25 07:10:00,16.4,8.6,30.54,WNW,289,1.0,15.0,71,0.00,,,0.00,0,Wunderground v.1.15,2013-01-25 12:10:00,
2013-01-25 07:20:00,16.5,8.4,30.54,WNW,289,1.0,1.0,70,0.00,,,0.00,0,Wunderground v.1.15,2013-01-25 12:20:00,
2013-01-25 07:25:00,16.6,8.5,30.54,WNW,289,0.0,15.0,70,0.00,,,0.00,0,Wunderground v.1.15,2013-01-25 12:25:00,
2013-01-25 07:30:00,16.8,8.4,30.53,WNW,289,0.0,15.0,69,0.00,,,0.00,0,Wunderground v.1.15,2013-01-25 12:30:00,
2013-01-25 07:35:00,16.9,8.2,30.53,WNW,288,0.0,15.0,68,0.00,,,0.00,7,Wunderground v.1.15,2013-01-25 12:35:00,
2013-01-25 07:40:00,17.0,8.9,30.53,WNW,287,1.0,1.0,70,0.00,,,0.00,11,Wunderground v.1.15,2013-01-25 12:40:00,
2013-01-25 07:50:00,17.1,8.7,30.54,WNW,287,0.0,15.0,69,0.00,,,0.00,18,Wunderground v.1.15,2013-01-25 12:50:00,
2013-01-25 08:05:00,17.6,8.5,30.53,WNW,286,1.0,15.0,67,0.00,,,0.00,40,Wunderground v.1.15,2013-01-25 13:05:00,
2013-01-25 08:10:00,17.8,8.4,30.53,West,275,1.0,1.0,66,0.00,,,0.00,44,Wunderground v.1.15,2013-01-25 13:10:00,
2013-01-25 08:15:00,18.0,8.2,30.53,SW,227,1.0,3.0,65,0.00,,,0.00,49,Wunderground v.1.15,2013-01-25 13:15:00,
2013-01-25 08:20:00,18.1,8.0,30.51,SSW,211,1.0,15.0,64,0.00,,,0.00,51,Wunderground v.1.15,2013-01-25 13:20:00,
2013-01-25 08:30:00,18.5,8.0,30.50,SSW,207,1.0,15.0,63,0.00,,,0.00,51,Wunderground v.1.15,2013-01-25 13:30:00,
2013-01-25 08:35:00,18.7,7.8,30.50,SSW,211,1.0,15.0,62,0.00,,,0.00,58,Wunderground v.1.15,2013-01-25 13:35:00,
2013-01-25 08:40:00,18.9,7.7,30.50,West,259,1.0,15.0,61,0.00,,,0.00,79,Wunderground v.1.15,2013-01-25 13:40:00,
2013-01-25 08:45:00,19.2,8.7,30.49,South,190,1.0,15.0,63,0.00,,,0.00,93,Wunderground v.1.15,2013-01-25 13:45:00,
2013-01-25 08:50:00,19.3,8.4,30.50,SSW,211,1.0,15.0,62,0.00,,,0.00,111,Wunderground v.1.15,2013-01-25 13:50:00,
2013-01-25 09:00:00,19.7,7.7,30.50,SW,221,3.0,15.0,59,0.00,,,0.00,93,Wunderground v.1.15,2013-01-25 14:00:00,
2013-01-25 09:05:00,19.8,7.8,30.50,SW,227,3.0,15.0,59,0.00,,,0.00,54,Wunderground v.1.15,2013-01-25 14:05:00,
2013-01-25 09:10:00,19.9,8.2,30.51,SSW,204,2.0,2.0,60,0.00,,,0.00,54,Wunderground v.1.15,2013-01-25 14:10:00,
2013-01-25 09:15:00,20.2,8.1,30.50,West,259,2.0,3.0,59,0.00,,,0.00,49,Wunderground v.1.15,2013-01-25 14:15:00,
2013-01-25 09:20:00,20.5,7.3,30.50,WSW,254,3.0,15.0,56,0.00,,,0.00,74,Wunderground v.1.15,2013-01-25 14:20:00,
2013-01-25 09:25:00,20.7,7.1,30.50,WNW,284,4.0,15.0,55,0.00,,,0.00,76,Wunderground v.1.15,2013-01-25 14:25:00,
2013-01-25 09:30:00,21.0,7.3,30.50,SSW,207,3.0,15.0,55,0.00,,,0.00,76,Wunderground v.1.15,2013-01-25 14:30:00,
2013-01-25 09:35:00,21.1,7.4,30.48,SW,236,4.0,15.0,55,0.00,,,0.00,120,Wunderground v.1.15,2013-01-25 14:35:00,
2013-01-25 09:40:00,21.3,6.4,30.48,West,269,4.0,15.0,52,0.00,,,0.00,146,Wunderground v.1.15,2013-01-25 14:40:00,
2013-01-25 09:45:00,21.5,7.0,30.48,WSW,248,5.0,15.0,53,0.00,,,0.00,139,Wunderground v.1.15,2013-01-25 14:45:00,
2013-01-25 09:50:00,21.8,6.8,30.48,WSW,237,5.0,5.0,52,0.00,,,0.00,116,Wunderground v.1.15,2013-01-25 14:50:00,
2013-01-25 10:00:00,21.5,6.6,30.48,WSW,238,6.0,6.0,52,0.00,,,0.00,113,Wunderground v.1.15,2013-01-25 15:00:00,
2013-01-25 10:05:00,21.5,6.6,30.47,West,272,6.0,15.0,52,0.00,,,0.00,118,Wunderground v.1.15,2013-01-25 15:05:00,
2013-01-25 10:15:00,21.3,6.4,30.46,West,277,6.0,15.0,52,0.00,,,0.00,93,Wunderground v.1.15,2013-01-25 15:15:00,
2013-01-25 10:20:00,21.4,6.9,30.46,SW,236,6.0,6.0,53,0.00,,,0.00,95,Wunderground v.1.15,2013-01-25 15:20:00,
2013-01-25 10:25:00,21.4,6.9,30.46,SW,236,6.0,15.0,53,0.00,,,0.00,120,Wunderground v.1.15,2013-01-25 15:25:00,
2013-01-25 10:35:00,21.7,8.0,30.46,WSW,241,5.0,15.0,55,0.00,,,0.00,132,Wunderground v.1.15,2013-01-25 15:35:00,
2013-01-25 10:40:00,21.8,7.7,30.45,SW,221,5.0,15.0,54,0.00,,,0.00,114,Wunderground v.1.15,2013-01-25 15:40:00,
2013-01-25 10:45:00,21.8,7.3,30.45,West,264,6.0,15.0,53,0.00,,,0.00,102,Wunderground v.1.15,2013-01-25 15:45:00,
2013-01-25 10:50:00,22.0,7.5,30.44,SW,234,6.0,15.0,53,0.00,,,0.00,100,Wunderground v.1.15,2013-01-25 15:50:00,
2013-01-25 10:55:00,22.1,7.6,30.43,West,270,6.0,15.0,53,0.00,,,0.00,111,Wunderground v.1.15,2013-01-25 15:55:00,
2013-01-25 11:00:00,22.2,7.6,30.44,SW,236,5.0,5.0,53,0.00,,,0.00,90,Wunderground v.1.15,2013-01-25 16:00:00,
2013-01-25 11:10:00,22.2,7.6,30.42,SW,236,5.0,5.0,53,0.00,,,0.00,86,Wunderground v.1.15,2013-01-25 16:10:00,
2013-01-25 11:15:00,22.1,7.6,30.42,WSW,238,5.0,6.0,53,0.00,,,0.00,113,Wunderground v.1.15,2013-01-25 16:15:00,
2013-01-25 11:20:00,22.3,7.7,30.43,WNW,284,5.0,5.0,53,0.00,,,0.00,171,Wunderground v.1.15,2013-01-25 16:20:00,
2013-01-25 11:25:00,22.5,7.9,30.42,West,277,6.0,10.0,53,0.00,,,0.00,171,Wunderground v.1.15,2013-01-25 16:25:00,
2013-01-25 11:35:00,22.4,7.8,30.41,WSW,254,7.0,15.0,53,0.00,,,0.00,102,Wunderground v.1.15,2013-01-25 16:35:00,
2013-01-25 11:40:00,22.4,7.8,30.40,WNW,294,6.0,15.0,53,0.00,,,0.00,134,Wunderground v.1.15,2013-01-25 16:40:00,
2013-01-25 11:45:00,22.4,7.8,30.40,NW,317,6.0,15.0,53,0.00,,,0.00,125,Wunderground v.1.15,2013-01-25 16:45:00,
2013-01-25 11:50:00,22.5,7.9,30.39,SW,217,5.0,15.0,53,0.00,,,0.00,141,Wunderground v.1.15,2013-01-25 16:50:00,
2013-01-25 11:55:00,22.6,8.0,30.39,SW,236,5.0,15.0,53,0.00,,,0.00,111,Wunderground v.1.15,2013-01-25 16:55:00,
2013-01-25 12:00:00,22.6,8.0,30.39,SW,234,5.0,15.0,53,0.00,,,0.00,62,Wunderground v.1.15,2013-01-25 17:00:00,
2013-01-25 12:10:00,23.1,8.9,30.37,NW,305,4.0,15.0,54,0.00,,,0.00,70,Wunderground v.1.15,2013-01-25 17:10:00,
2013-01-25 12:15:00,23.3,8.7,30.37,SW,221,3.0,15.0,53,0.00,,,0.00,67,Wunderground v.1.15,2013-01-25 17:15:00,
2013-01-25 12:20:00,23.2,8.2,30.36,West,276,5.0,15.0,52,0.00,,,0.00,93,Wunderground v.1.15,2013-01-25 17:20:00,
2013-01-25 12:25:00,23.2,8.2,30.36,WNW,284,5.0,15.0,52,0.00,,,0.00,104,Wunderground v.1.15,2013-01-25 17:25:00,
2013-01-25 12:30:00,23.4,8.3,30.35,WNW,289,4.0,15.0,52,0.00,,,0.00,123,Wunderground v.1.15,2013-01-25 17:30:00,
2013-01-25 12:35:00,23.4,7.9,30.35,West,263,4.0,15.0,51,0.00,,,0.00,83,Wunderground v.1.15,2013-01-25 17:35:00,
2013-01-25 12:45:00,23.5,7.6,30.34,SW,228,5.0,15.0,50,0.00,,,0.00,77,Wunderground v.1.15,2013-01-25 17:45:00,
2013-01-25 12:50:00,23.5,7.6,30.33,WSW,253,5.0,15.0,50,0.00,,,0.00,116,Wunderground v.1.15,2013-01-25 17:50:00,
2013-01-25 12:55:00,23.4,7.9,30.32,West,275,5.0,15.0,51,0.00,,,0.00,111,Wunderground v.1.15,2013-01-25 17:55:00,
2013-01-25 13:00:00,23.6,8.1,30.32,West,281,6.0,6.0,51,0.00,,,0.00,97,Wunderground v.1.15,2013-01-25 18:00:00,
2013-01-25 13:05:00,23.1,8.9,30.33,West,273,7.0,10.0,54,0.00,,,0.00,58,Wunderground v.1.15,2013-01-25 18:05:00,
2013-01-25 13:15:00,22.2,12.2,30.32,West,279,7.0,15.0,65,0.00,,,0.00,40,Wunderground v.1.15,2013-01-25 18:15:00,
2013-01-25 13:20:00,21.8,12.9,30.33,WNW,292,6.0,15.0,68,0.00,,,0.00,42,Wunderground v.1.15,2013-01-25 18:20:00,
2013-01-25 13:25:00,21.6,13.3,30.32,WNW,283,7.0,15.0,70,0.00,,,0.00,44,Wunderground v.1.15,2013-01-25 18:25:00,
2013-01-25 13:30:00,21.6,13.3,30.31,West,270,8.0,15.0,70,0.00,,,0.00,63,Wunderground v.1.15,2013-01-25 18:30:00,
2013-01-25 13:35:00,21.5,13.5,30.31,West,277,9.0,15.0,71,0.00,,,0.00,54,Wunderground v.1.15,2013-01-25 18:35:00,
2013-01-25 13:40:00,21.6,14.0,30.30,NW,305,7.0,7.0,72,0.00,,,0.00,49,Wunderground v.1.15,2013-01-25 18:40:00,
2013-01-25 13:50:00,21.8,13.8,30.29,WSW,246,5.0,5.0,71,0.00,,,0.00,42,Wunderground v.1.15,2013-01-25 18:50:00,
2013-01-25 13:55:00,22.0,14.3,30.29,SSW,209,4.0,15.0,72,0.00,,,0.00,23,Wunderground v.1.15,2013-01-25 18:55:00,
2013-01-25 14:00:00,22.1,13.8,30.29,West,272,4.0,15.0,70,0.00,,,0.00,19,Wunderground v.1.15,2013-01-25 19:00:00,
2013-01-25 14:05:00,22.0,13.4,30.28,West,275,6.0,15.0,69,0.00,,,0.00,26,Wunderground v.1.15,2013-01-25 19:05:00,
2013-01-25 14:10:00,22.0,13.4,30.27,WNW,284,6.0,15.0,69,0.00,,,0.00,44,Wunderground v.1.15,2013-01-25 19:10:00,
2013-01-25 14:15:00,22.0,14.0,30.27,West,261,5.0,15.0,71,0.00,,,0.00,47,Wunderground v.1.15,2013-01-25 19:15:00,
2013-01-25 14:20:00,21.8,14.2,30.27,West,275,6.0,15.0,72,0.00,,,0.00,39,Wunderground v.1.15,2013-01-25 19:20:00,
2013-01-25 14:25:00,21.7,14.1,30.27,WSW,239,6.0,15.0,72,0.00,,,0.00,35,Wunderground v.1.15,2013-01-25 19:25:00,
2013-01-25 14:30:00,21.7,14.7,30.26,WSW,237,5.0,5.0,74,0.00,,,0.00,37,Wunderground v.1.15,2013-01-25 19:30:00,
2013-01-25 14:35:00,21.7,15.0,30.27,West,259,4.0,15.0,75,0.00,,,0.00,37,Wunderground v.1.15,2013-01-25 19:35:00,
2013-01-25 14:40:00,21.5,15.4,30.26,SW,229,5.0,5.0,77,0.00,,,0.00,49,Wunderground v.1.15,2013-01-25 19:40:00,
2013-01-25 14:50:00,21.1,16.2,30.25,WSW,242,5.0,5.0,81,0.00,,,0.00,44,Wunderground v.1.15,2013-01-25 19:50:00,
2013-01-25 14:55:00,21.1,16.2,30.25,WSW,253,4.0,8.0,81,0.00,,,0.00,47,Wunderground v.1.15,2013-01-25 19:55:00,
2013-01-25 15:00:00,20.9,16.3,30.25,WSW,254,5.0,5.0,82,0.00,,,0.00,47,Wunderground v.1.15,2013-01-25 20:00:00,
2013-01-25 15:05:00,20.9,16.5,30.25,SW,235,5.0,15.0,83,0.00,,,0.00,46,Wunderground v.1.15,2013-01-25 20:05:00,
2013-01-25 15:10:00,20.9,16.5,30.24,SW,225,4.0,15.0,83,0.00,,,0.00,54,Wunderground v.1.15,2013-01-25 20:10:00,
2013-01-25 15:15:00,20.9,16.5,30.24,West,273,4.0,15.0,83,0.00,,,0.00,56,Wunderground v.1.15,2013-01-25 20:15:00,
2013-01-25 15:25:00,21.1,16.7,30.24,WSW,242,4.0,15.0,83,0.00,,,0.00,65,Wunderground v.1.15,2013-01-25 20:25:00,
2013-01-25 15:30:00,21.2,16.8,30.24,SW,223,3.0,15.0,83,0.00,,,0.00,60,Wunderground v.1.15,2013-01-25 20:30:00,
2013-01-25 15:35:00,21.2,16.6,30.24,SSW,210,4.0,15.0,82,0.00,,,0.00,58,Wunderground v.1.15,2013-01-25 20:35:00,
2013-01-25 15:40:00,21.3,17.2,30.23,SW,234,4.0,4.0,84,0.00,,,0.00,60,Wunderground v.1.15,2013-01-25 20:40:00,
2013-01-25 15:45:00,21.4,17.3,30.23,West,276,3.0,15.0,84,0.00,,,0.00,63,Wunderground v.1.15,2013-01-25 20:45:00,
2013-01-25 15:55:00,21.3,16.9,30.23,West,266,6.0,15.0,83,0.00,,,0.00,49,Wunderground v.1.15,2013-01-25 20:55:00,
2013-01-25 16:00:00,21.3,16.9,30.23,WSW,254,6.0,15.0,83,0.00,,,0.00,46,Wunderground v.1.15,2013-01-25 21:00:00,
2013-01-25 16:05:00,21.3,16.7,30.22,West,269,5.0,15.0,82,0.00,,,0.00,42,Wunderground v.1.15,2013-01-25 21:05:00,
2013-01-25 16:10:00,21.3,16.9,30.22,SW,229,5.0,5.0,83,0.00,,,0.00,37,Wunderground v.1.15,2013-01-25 21:10:00,
2013-01-25 16:15:00,21.4,17.0,30.23,West,259,4.0,15.0,83,0.00,,,0.00,30,Wunderground v.1.15,2013-01-25 21:15:00,
2013-01-25 16:20:00,21.3,16.9,30.22,West,272,5.0,15.0,83,0.00,,,0.00,28,Wunderground v.1.15,2013-01-25 21:20:00,
2013-01-25 16:30:00,21.3,17.2,30.21,WSW,245,5.0,5.0,84,0.00,,,0.00,32,Wunderground v.1.15,2013-01-25 21:30:00,
2013-01-25 16:35:00,21.4,17.6,30.20,West,274,4.0,15.0,85,0.00,,,0.00,30,Wunderground v.1.15,2013-01-25 21:35:00,
2013-01-25 16:40:00,21.4,17.3,30.20,SW,230,4.0,15.0,84,0.00,,,0.00,26,Wunderground v.1.15,2013-01-25 21:40:00,
2013-01-25 16:45:00,21.5,17.7,30.20,West,267,5.0,15.0,85,0.00,,,0.00,26,Wunderground v.1.15,2013-01-25 21:45:00,
2013-01-25 16:50:00,21.5,17.4,30.20,West,281,5.0,5.0,84,0.00,,,0.00,26,Wunderground v.1.15,2013-01-25 21:50:00,
2013-01-25 16:55:00,21.6,17.5,30.20,West,263,5.0,15.0,84,0.00,,,0.00,21,Wunderground v.1.15,2013-01-25 21:55:00,
2013-01-25 17:00:00,21.5,17.1,30.20,West,275,5.0,5.0,83,0.00,,,0.00,19,Wunderground v.1.15,2013-01-25 22:00:00,
2013-01-25 17:05:00,21.6,17.2,30.20,West,273,5.0,15.0,83,0.00,,,0.00,12,Wunderground v.1.15,2013-01-25 22:05:00,
2013-01-25 17:10:00,21.6,17.2,30.20,WSW,242,5.0,15.0,83,0.00,,,0.00,11,Wunderground v.1.15,2013-01-25 22:10:00,
2013-01-25 17:15:00,21.6,17.2,30.19,SW,228,4.0,15.0,83,0.00,,,0.00,7,Wunderground v.1.15,2013-01-25 22:15:00,
2013-01-25 17:20:00,21.6,17.2,30.19,West,270,4.0,15.0,83,0.00,,,0.00,0,Wunderground v.1.15,2013-01-25 22:20:00,
2013-01-25 17:30:00,21.7,17.3,30.19,South,188,4.0,15.0,83,0.00,,,0.00,0,Wunderground v.1.15,2013-01-25 22:30:00,
2013-01-25 17:35:00,21.7,17.3,30.18,West,281,3.0,15.0,83,0.00,,,0.00,0,Wunderground v.1.15,2013-01-25 22:35:00,
2013-01-25 17:40:00,21.7,17.6,30.19,West,271,4.0,15.0,84,0.00,,,0.00,0,Wunderground v.1.15,2013-01-25 22:40:00,
2013-01-25 17:45:00,22.0,18.5,30.19,West,261,3.0,15.0,86,0.00,,,0.00,0,Wunderground v.1.15,2013-01-25 22:45:00,
2013-01-25 17:50:00,22.0,17.9,30.19,WNW,284,3.0,3.0,84,0.00,,,0.00,0,Wunderground v.1.15,2013-01-25 22:50:00,
2013-01-25 18:00:00,21.8,17.7,30.18,WSW,252,4.0,4.0,84,0.00,,,0.00,0,Wunderground v.1.15,2013-01-25 23:00:00,
2013-01-25 18:10:00,21.7,17.6,30.17,SW,236,4.0,15.0,84,0.00,,,0.00,0,Wunderground v.1.15,2013-01-25 23:10:00,
2013-01-25 18:15:00,21.7,17.6,30.17,WSW,257,5.0,15.0,84,0.00,,,0.00,0,Wunderground v.1.15,2013-01-25 23:15:00,
2013-01-25 18:20:00,21.7,17.6,30.16,WSW,242,5.0,15.0,84,0.00,,,0.00,0,Wunderground v.1.15,2013-01-25 23:20:00,
2013-01-25 18:25:00,21.8,17.7,30.17,WSW,240,5.0,15.0,84,0.00,,,0.00,0,Wunderground v.1.15,2013-01-25 23:25:00,
2013-01-25 18:30:00,21.8,17.7,30.17,West,267,5.0,15.0,84,0.00,,,0.00,0,Wunderground v.1.15,2013-01-25 23:30:00,
2013-01-25 18:35:00,21.8,17.4,30.17,WSW,242,5.0,15.0,83,0.00,,,0.00,0,Wunderground v.1.15,2013-01-25 23:35:00,
2013-01-25 18:40:00,21.7,17.3,30.17,WSW,258,6.0,6.0,83,0.00,,,0.00,0,Wunderground v.1.15,2013-01-25 23:40:00,
2013-01-25 18:45:00,21.8,17.4,30.17,WSW,238,5.0,15.0,83,0.00,,,0.00,0,Wunderground v.1.15,2013-01-25 23:45:00,
2013-01-25 18:50:00,21.9,17.5,30.17,WSW,255,4.0,15.0,83,0.00,,,0.00,0,Wunderground v.1.15,2013-01-25 23:50:00,
2013-01-25 18:55:00,22.0,17.6,30.17,WSW,251,3.0,15.0,83,0.00,,,0.00,0,Wunderground v.1.15,2013-01-25 23:55:00,
2013-01-25 19:05:00,22.0,17.6,30.16,SW,232,4.0,15.0,83,0.00,,,0.00,0,Wunderground v.1.15,2013-01-26 00:05:00,
2013-01-25 19:10:00,22.0,17.3,30.16,SW,231,4.0,4.0,82,0.00,,,0.00,0,Wunderground v.1.15,2013-01-26 00:10:00,
2013-01-25 19:15:00,22.0,17.3,30.16,SW,223,3.0,15.0,82,0.00,,,0.00,0,Wunderground v.1.15,2013-01-26 00:15:00,
2013-01-25 19:25:00,22.1,17.7,30.16,West,267,8.0,15.0,83,0.00,,,0.00,0,Wunderground v.1.15,2013-01-26 00:25:00,
2013-01-25 19:30:00,22.1,17.7,30.16,West,265,8.0,15.0,83,0.00,,,0.00,0,Wunderground v.1.15,2013-01-26 00:30:00,
2013-01-25 19:40:00,22.2,17.8,30.16,West,269,4.0,4.0,83,0.00,,,0.00,0,Wunderground v.1.15,2013-01-26 00:40:00,
2013-01-25 19:50:00,22.3,17.6,30.15,NW,317,3.0,15.0,82,0.00,,,0.00,0,Wunderground v.1.15,2013-01-26 00:50:00,
2013-01-25 19:55:00,22.4,17.7,30.16,WNW,282,3.0,15.0,82,0.00,,,0.00,0,Wunderground v.1.15,2013-01-26 00:55:00,
2013-01-25 20:00:00,22.5,18.1,30.16,WNW,302,2.0,15.0,83,0.00,,,0.00,0,Wunderground v.1.15,2013-01-26 01:00:00,
2013-01-25 20:05:00,22.5,17.8,30.16,West,274,2.0,15.0,82,0.00,,,0.00,0,Wunderground v.1.15,2013-01-26 01:05:00,
2013-01-25 20:10:00,22.4,17.7,30.16,SW,224,2.0,15.0,82,0.00,,,0.00,0,Wunderground v.1.15,2013-01-26 01:10:00,
2013-01-25 20:15:00,22.3,17.6,30.15,West,262,3.0,15.0,82,0.00,,,0.00,0,Wunderground v.1.15,2013-01-26 01:15:00,
2013-01-25 20:20:00,22.2,17.5,30.15,SW,222,3.0,3.0,82,0.00,,,0.00,0,Wunderground v.1.15,2013-01-26 01:20:00,
2013-01-25 20:25:00,22.2,17.5,30.15,SW,236,3.0,15.0,82,0.00,,,0.00,0,Wunderground v.1.15,2013-01-26 01:25:00,
2013-01-25 20:30:00,22.2,17.5,30.15,SW,227,3.0,15.0,82,0.00,,,0.00,0,Wunderground v.1.15,2013-01-26 01:30:00,
2013-01-25 20:40:00,22.3,17.9,30.15,West,278,2.0,15.0,83,0.00,,,0.00,0,Wunderground v.1.15,2013-01-26 01:40:00,
2013-01-25 20:50:00,22.2,17.5,30.15,SW,236,3.0,15.0,82,0.00,,,0.00,0,Wunderground v.1.15,2013-01-26 01:50:00,
2013-01-25 20:55:00,22.2,17.8,30.14,SW,221,3.0,15.0,83,0.00,,,0.00,0,Wunderground v.1.15,2013-01-26 01:55:00,
2013-01-25 21:00:00,22.2,17.8,30.14,West,265,4.0,4.0,83,0.00,,,0.00,0,Wunderground v.1.15,2013-01-26 02:00:00,
2013-01-25 21:05:00,22.3,17.9,30.14,SW,215,4.0,15.0,83,0.00,,,0.00,0,Wunderground v.1.15,2013-01-26 02:05:00,
2013-01-25 21:15:00,22.4,18.0,30.14,West,275,2.0,4.0,83,0.00,,,0.00,0,Wunderground v.1.15,2013-01-26 02:15:00,
2013-01-25 21:20:00,22.4,18.0,30.14,WNW,293,3.0,15.0,83,0.00,,,0.00,0,Wunderground v.1.15,2013-01-26 02:20:00,
2013-01-25 21:25:00,22.4,18.0,30.15,West,277,4.0,15.0,83,0.00,,,0.00,0,Wunderground v.1.15,2013-01-26 02:25:00,
2013-01-25 21:30:00,22.4,18.0,30.15,West,259,3.0,15.0,83,0.00,,,0.00,0,Wunderground v.1.15,2013-01-26 02:30:00,
2013-01-25 21:40:00,22.4,18.0,30.14,SW,227,4.0,4.0,83,0.00,,,0.00,0,Wunderground v.1.15,2013-01-26 02:40:00,
2013-01-25 21:45:00,22.4,18.0,30.14,West,271,4.0,15.0,83,0.00,,,0.00,0,Wunderground v.1.15,2013-01-26 02:45:00,
2013-01-25 21:55:00,22.4,18.0,30.14,West,269,3.0,15.0,83,0.00,,,0.00,0,Wunderground v.1.15,2013-01-26 02:55:00,
2013-01-25 22:00:00,22.4,18.0,30.14,West,280,4.0,4.0,83,0.00,,,0.00,0,Wunderground v.1.15,2013-01-26 03:00:00,
2013-01-25 22:05:00,22.4,18.0,30.14,West,275,4.0,15.0,83,0.00,,,0.00,0,Wunderground v.1.15,2013-01-26 03:05:00,
2013-01-25 22:15:00,22.4,18.3,30.14,WSW,254,3.0,15.0,84,0.00,,,0.00,0,Wunderground v.1.15,2013-01-26 03:15:00,
2013-01-25 22:20:00,22.5,18.4,30.14,WNW,301,2.0,15.0,84,0.00,,,0.00,0,Wunderground v.1.15,2013-01-26 03:20:00,
2013-01-25 22:25:00,22.5,18.4,30.14,WSW,254,2.0,15.0,84,0.00,,,0.00,0,Wunderground v.1.15,2013-01-26 03:25:00,
2013-01-25 22:30:00,22.6,18.5,30.14,WSW,248,2.0,15.0,84,0.00,,,0.00,0,Wunderground v.1.15,2013-01-26 03:30:00,
2013-01-25 22:35:00,22.6,18.5,30.13,WSW,249,2.0,15.0,84,0.00,,,0.00,0,Wunderground v.1.15,2013-01-26 03:35:00,
2013-01-25 22:40:00,22.6,18.5,30.14,SW,231,3.0,15.0,84,0.00,,,0.00,0,Wunderground v.1.15,2013-01-26 03:40:00,
2013-01-25 22:50:00,22.6,18.5,30.14,SW,232,3.0,3.0,84,0.00,,,0.00,0,Wunderground v.1.15,2013-01-26 03:50:00,
2013-01-25 22:55:00,22.6,18.5,30.14,West,271,3.0,15.0,84,0.00,,,0.00,0,Wunderground v.1.15,2013-01-26 03:55:00,
2013-01-25 23:00:00,22.7,18.6,30.14,WSW,237,2.0,15.0,84,0.00,,,0.00,0,Wunderground v.1.15,2013-01-26 04:00:00,
2013-01-25 23:05:00,22.7,18.6,30.14,WSW,253,3.0,15.0,84,0.00,,,0.00,0,Wunderground v.1.15,2013-01-26 04:05:00,
2013-01-25 23:10:00,22.7,18.6,30.14,West,260,3.0,15.0,84,0.00,,,0.00,0,Wunderground v.1.15,2013-01-26 04:10:00,
2013-01-25 23:20:00,22.9,19.1,30.15,SW,225,2.0,15.0,85,0.00,,,0.00,0,Wunderground v.1.15,2013-01-26 04:20:00,
2013-01-25 23:25:00,22.9,18.8,30.15,West,269,1.0,15.0,84,0.00,,,0.00,0,Wunderground v.1.15,2013-01-26 04:25:00,
2013-01-25 23:30:00,22.9,18.8,30.15,West,280,2.0,15.0,84,0.00,,,0.00,0,Wunderground v.1.15,2013-01-26 04:30:00,
2013-01-25 23:40:00,23.0,18.9,30.14,West,260,2.0,2.0,84,0.00,,,0.00,0,Wunderground v.1.15,2013-01-26 04:40:00,
2013-01-25 23:50:00,23.0,18.9,30.15,SW,234,1.0,1.0,84,0.00,,,0.00,0,Wunderground v.1.15,2013-01-26 04:50:00,
2013-01-25 23:55:00,23.0,18.9,30.15,WSW,238,1.0,15.0,84,0.00,,,0.00,0,Wunderground v.1.15,2013-01-26 04:55:00,